createdAt,value
2022-12-03T00:00:12.853Z,29.17
2022-12-03T00:05:29.566Z,28.70
2022-12-03T00:08:03.605Z,30.48
2022-12-03T00:10:34.006Z,29.02
2022-12-03T00:13:00.902Z,30.30
2022-12-03T00:15:28.131Z,29.50
2022-12-03T00:17:55.046Z,29.45
2022-12-03T00:20:25.248Z,29.63
2022-12-03T00:22:52.885Z,29.05
2022-12-03T00:25:21.001Z,33.58
2022-12-03T00:27:48.868Z,31.20
2022-12-03T00:30:21.529Z,31.92
2022-12-03T00:32:50.727Z,31.70
2022-12-03T00:35:18.525Z,28.92
2022-12-03T00:37:48.492Z,30.17
2022-12-03T00:40:15.834Z,29.42
2022-12-03T00:42:42.782Z,32.67
2022-12-03T00:45:10.476Z,30.52
2022-12-03T00:47:37.288Z,31.38
2022-12-03T00:50:06.590Z,31.77
2022-12-03T00:52:33.907Z,29.83
2022-12-03T00:55:01.039Z,30.60
2022-12-03T00:57:27.882Z,30.90
2022-12-03T00:59:55.046Z,30.65
2022-12-03T01:02:21.925Z,27.63
2022-12-03T01:04:49.249Z,30.08
2022-12-03T01:07:16.650Z,30.30
2022-12-03T01:09:44.328Z,28.58
2022-12-03T01:12:12.095Z,31.23
2022-12-03T01:14:39.439Z,32.95
2022-12-03T01:17:07.038Z,31.05
2022-12-03T01:19:35.326Z,31.33
2022-12-03T01:22:02.623Z,34.08
2022-12-03T01:24:30.358Z,31.13
2022-12-03T01:26:57.698Z,29.60
2022-12-03T01:29:25.214Z,30.27
2022-12-03T01:32:11.256Z,31.60
2022-12-03T01:34:44.209Z,31.70
2022-12-03T01:37:34.605Z,30.50
2022-12-03T01:40:05.694Z,30.83
2022-12-03T01:42:42.556Z,30.67
2022-12-03T01:45:23.616Z,32.33
2022-12-03T01:47:51.406Z,30.88
2022-12-03T01:50:32.592Z,30.23
2022-12-03T01:53:03.751Z,31.75
2022-12-03T01:55:34.187Z,32.50
2022-12-03T01:58:05.118Z,32.47
2022-12-03T02:00:33.141Z,31.35
2022-12-03T02:03:04.006Z,31.73
2022-12-03T02:05:35.570Z,32.25
2022-12-03T02:08:35.758Z,33.05
2022-12-03T02:11:25.347Z,32.28
2022-12-03T02:14:02.765Z,32.42
2022-12-03T02:16:34.593Z,31.55
2022-12-03T02:19:02.251Z,31.60
2022-12-03T02:21:51.121Z,33.45
2022-12-03T02:24:38.971Z,33.05
2022-12-03T02:27:09.358Z,34.38
2022-12-03T02:29:38.273Z,34.65
2022-12-03T02:32:06.024Z,34.03
2022-12-03T02:34:46.054Z,32.90
2022-12-03T02:37:27.101Z,34.72
2022-12-03T02:40:03.251Z,34.40
2022-12-03T02:42:35.224Z,33.90
2022-12-03T02:45:19.310Z,34.97
2022-12-03T02:47:56.101Z,34.33
2022-12-03T02:50:32.238Z,35.63
2022-12-03T02:53:05.442Z,34.78
2022-12-03T02:55:38.834Z,33.60
2022-12-03T02:58:07.296Z,36.90
2022-12-03T03:00:36.267Z,34.30
2022-12-03T03:03:08.202Z,33.35
2022-12-03T03:05:40.837Z,33.15
2022-12-03T03:08:10.506Z,34.80
2022-12-03T03:10:41.455Z,33.92
2022-12-03T03:13:18.609Z,33.75
2022-12-03T03:15:46.514Z,33.63
2022-12-03T03:18:15.974Z,34.05
2022-12-03T03:20:44.928Z,35.20
2022-12-03T03:23:20.168Z,33.65
2022-12-03T03:25:59.110Z,33.65
2022-12-03T03:28:28.360Z,31.70
2022-12-03T03:30:56.053Z,34.50
2022-12-03T03:33:23.435Z,34.15
2022-12-03T03:35:50.635Z,32.05
2022-12-03T03:38:22.493Z,34.47
2022-12-03T03:40:56.458Z,32.90
2022-12-03T03:43:25.022Z,33.25
2022-12-03T03:45:54.526Z,32.95
2022-12-03T03:48:23.743Z,33.08
2022-12-03T03:51:04.000Z,31.98
2022-12-03T03:53:33.969Z,34.30
2022-12-03T03:56:06.582Z,33.75
2022-12-03T03:58:34.205Z,32.05
2022-12-03T04:01:01.985Z,30.98
2022-12-03T04:03:29.401Z,31.75
2022-12-03T04:05:56.694Z,31.63
2022-12-03T04:08:23.972Z,35.42
2022-12-03T04:11:09.879Z,33.92
2022-12-03T04:13:39.795Z,33.60
2022-12-03T04:16:09.277Z,32.80
2022-12-03T04:18:46.149Z,32.13
2022-12-03T04:21:37.666Z,33.30
2022-12-03T04:24:09.919Z,33.33
2022-12-03T04:26:56.979Z,32.80
2022-12-03T04:29:35.712Z,32.45
2022-12-03T04:32:24.074Z,31.70
2022-12-03T04:35:10.122Z,32.55
2022-12-03T04:37:40.299Z,30.65
2022-12-03T04:40:29.510Z,33.15
2022-12-03T04:42:59.401Z,32.47
2022-12-03T04:45:27.802Z,32.13
2022-12-03T04:47:55.675Z,32.42
2022-12-03T04:50:23.074Z,34.25
2022-12-03T04:52:50.738Z,31.27
2022-12-03T04:55:18.362Z,31.77
2022-12-03T04:57:45.748Z,32.83
2022-12-03T05:00:14.223Z,31.35
2022-12-03T05:02:41.150Z,32.28
2022-12-03T05:05:09.271Z,31.35
2022-12-03T05:07:36.675Z,32.67
2022-12-03T05:10:06.248Z,30.27
2022-12-03T05:12:33.174Z,31.02
2022-12-03T05:15:00.491Z,32.42
2022-12-03T05:17:27.667Z,30.30
2022-12-03T05:20:13.797Z,30.40
2022-12-03T05:22:42.558Z,32.60
2022-12-03T05:25:13.799Z,30.65
2022-12-03T05:27:40.697Z,28.30
2022-12-03T05:30:08.932Z,28.77
2022-12-03T05:32:35.805Z,30.77
2022-12-03T05:35:03.004Z,29.50
2022-12-03T05:37:30.321Z,28.75
2022-12-03T05:39:57.871Z,29.50
2022-12-03T05:42:47.052Z,28.75
2022-12-03T05:45:18.647Z,28.77
2022-12-03T05:47:45.436Z,30.20
2022-12-03T05:50:12.676Z,29.55
2022-12-03T05:52:43.515Z,29.02
2022-12-03T05:55:11.959Z,28.95
2022-12-03T05:57:39.515Z,29.70
2022-12-03T06:00:18.425Z,29.58
2022-12-03T06:02:45.874Z,29.33
2022-12-03T06:05:15.751Z,27.52
2022-12-03T06:07:48.752Z,29.08
2022-12-03T06:10:29.881Z,28.52
2022-12-03T06:12:58.484Z,28.75
2022-12-03T06:15:26.029Z,29.52
2022-12-03T06:17:53.630Z,28.80
2022-12-03T06:20:21.500Z,31.92
2022-12-03T06:22:48.765Z,29.60
2022-12-03T06:25:17.121Z,28.52
2022-12-03T06:27:44.601Z,29.23
2022-12-03T06:30:13.867Z,27.13
2022-12-03T06:32:41.104Z,28.15
2022-12-03T06:35:08.974Z,29.45
2022-12-03T06:37:35.891Z,28.02
2022-12-03T06:40:03.302Z,26.95
2022-12-03T06:48:15.625Z,27.00
2022-12-03T06:50:42.514Z,27.83
2022-12-03T06:53:09.622Z,25.83
2022-12-03T06:55:36.419Z,27.35
2022-12-03T06:58:04.332Z,26.65
2022-12-03T07:00:31.450Z,24.98
2022-12-03T07:02:58.761Z,25.63
2022-12-03T07:05:26.309Z,26.67
2022-12-03T07:07:55.570Z,24.55
2022-12-03T07:10:22.852Z,23.98
2022-12-03T07:12:49.920Z,26.02
2022-12-03T07:15:16.861Z,24.95
2022-12-03T07:17:43.961Z,24.95
2022-12-03T07:20:11.540Z,27.13
2022-12-03T07:22:38.901Z,25.60
2022-12-03T07:25:06.750Z,26.00
2022-12-03T07:27:34.057Z,28.48
2022-12-03T07:30:01.376Z,28.95
2022-12-03T07:32:28.785Z,27.92
2022-12-03T07:34:56.604Z,30.42
2022-12-03T07:37:23.878Z,27.77
2022-12-03T07:39:52.631Z,28.02
2022-12-03T07:42:19.784Z,28.23
2022-12-03T07:44:46.620Z,27.30
2022-12-03T07:47:13.841Z,27.08
2022-12-03T07:49:41.232Z,26.55
2022-12-03T07:52:11.353Z,25.40
2022-12-03T07:54:38.334Z,26.98
2022-12-03T07:57:05.583Z,28.05
2022-12-03T07:59:32.492Z,27.70
2022-12-03T08:01:59.764Z,25.75
2022-12-03T08:04:26.696Z,27.13
2022-12-03T08:06:54.077Z,28.48
2022-12-03T08:09:42.374Z,26.45
2022-12-03T08:12:20.163Z,26.55
2022-12-03T08:14:54.802Z,26.83
2022-12-03T08:17:23.421Z,27.55
2022-12-03T08:19:50.313Z,25.75
2022-12-03T08:22:31.378Z,23.88
2022-12-03T08:25:03.981Z,26.83
2022-12-03T08:27:37.571Z,26.10
2022-12-03T08:30:06.834Z,26.33
2022-12-03T08:32:44.856Z,25.58
2022-12-03T08:35:24.192Z,25.98
2022-12-03T08:38:14.187Z,26.45
2022-12-03T08:40:45.745Z,24.77
2022-12-03T08:43:30.332Z,24.55
2022-12-03T08:46:01.737Z,26.15
2022-12-03T08:48:47.061Z,25.83
2022-12-03T08:51:29.534Z,24.85
2022-12-03T08:54:27.419Z,25.45
2022-12-03T08:56:54.794Z,26.77
2022-12-03T08:59:32.762Z,27.60
2022-12-03T09:02:00.226Z,27.17
2022-12-03T09:04:53.221Z,27.02
2022-12-03T09:07:20.283Z,24.77
2022-12-03T09:09:47.936Z,25.38
2022-12-03T09:12:15.095Z,25.35
2022-12-03T09:14:42.497Z,24.90
2022-12-03T09:17:12.424Z,26.13
2022-12-03T09:19:46.244Z,27.88
2022-12-03T09:24:44.938Z,29.35
2022-12-03T09:28:14.893Z,28.40
2022-12-03T09:30:42.153Z,26.98
2022-12-03T09:33:10.566Z,28.92
2022-12-03T09:35:37.715Z,30.17
2022-12-03T09:38:04.731Z,27.75
2022-12-03T09:40:31.926Z,26.05
2022-12-03T09:42:58.817Z,29.25
2022-12-03T09:45:26.443Z,29.02
2022-12-03T09:47:55.212Z,31.10
2022-12-03T09:50:28.920Z,26.13
2022-12-03T09:53:03.320Z,27.20
2022-12-03T09:55:31.513Z,28.15
2022-12-03T09:57:58.910Z,28.35
2022-12-03T10:00:32.059Z,28.95
2022-12-03T10:03:06.858Z,28.65
2022-12-03T10:05:36.396Z,28.70
2022-12-03T10:08:13.268Z,29.40
2022-12-03T10:10:42.312Z,28.77
2022-12-03T10:13:38.879Z,26.60
2022-12-03T10:16:23.446Z,28.70
2022-12-03T10:19:00.473Z,30.02
2022-12-03T10:21:41.785Z,29.33
2022-12-03T10:24:23.416Z,29.95
2022-12-03T10:26:54.372Z,28.02
2022-12-03T10:29:34.826Z,28.10
2022-12-03T10:32:09.131Z,27.73
2022-12-03T10:34:47.693Z,27.45
2022-12-03T10:37:21.669Z,28.67
2022-12-03T10:40:01.213Z,26.60
2022-12-03T10:42:47.867Z,26.65
2022-12-03T10:45:23.049Z,26.17
2022-12-03T10:48:20.101Z,27.30
2022-12-03T10:51:25.100Z,27.23
2022-12-03T10:53:52.413Z,28.08
2022-12-03T10:56:30.330Z,25.98
2022-12-03T10:58:59.264Z,25.50
2022-12-03T11:01:29.224Z,26.08
2022-12-03T11:04:09.043Z,26.60
2022-12-03T11:07:02.080Z,24.70
2022-12-03T11:09:34.069Z,25.02
2022-12-03T11:12:07.858Z,24.15
2022-12-03T11:15:38.816Z,26.90
2022-12-03T11:18:09.356Z,24.77
2022-12-03T11:20:47.997Z,24.88
2022-12-03T11:23:46.529Z,25.85
2022-12-03T11:26:27.299Z,26.55
2022-12-03T11:28:57.466Z,26.13
2022-12-03T11:31:58.974Z,27.50
2022-12-03T11:34:40.831Z,26.17
2022-12-03T11:37:13.969Z,27.20
2022-12-03T11:39:51.105Z,29.38
2022-12-03T11:42:47.013Z,26.35
2022-12-03T11:46:19.931Z,26.30
2022-12-03T11:48:50.502Z,24.92
2022-12-03T11:51:23.423Z,27.50
2022-12-03T11:54:31.042Z,26.00
2022-12-03T11:56:58.825Z,26.27
2022-12-03T11:59:27.717Z,26.70
2022-12-03T12:01:54.767Z,28.48
2022-12-03T12:04:43.943Z,26.23
2022-12-03T12:07:13.332Z,26.50
2022-12-03T12:10:07.819Z,26.90
2022-12-03T12:12:54.310Z,25.40
2022-12-03T12:15:48.107Z,25.95
2022-12-03T12:18:43.338Z,24.50
2022-12-03T12:21:51.162Z,26.52
2022-12-03T12:24:55.525Z,26.70
2022-12-03T12:27:31.803Z,24.83
2022-12-03T12:30:22.433Z,29.05
2022-12-03T12:32:54.491Z,25.13
2022-12-03T12:35:32.997Z,27.08
2022-12-03T12:38:14.838Z,25.92
2022-12-03T12:43:31.885Z,25.85
2022-12-03T12:49:10.544Z,26.27
2022-12-03T12:51:47.833Z,32.60
2022-12-03T12:54:22.887Z,28.25
2022-12-03T12:56:50.553Z,26.85
2022-12-03T12:59:27.361Z,26.65
2022-12-03T13:02:46.239Z,26.20
2022-12-03T13:05:14.373Z,26.48
2022-12-03T13:07:44.330Z,25.67
2022-12-03T13:10:40.773Z,25.83
2022-12-03T13:13:46.328Z,24.95
2022-12-03T13:16:25.710Z,25.63
2022-12-03T13:18:59.887Z,23.98
2022-12-03T13:21:47.265Z,25.35
2022-12-03T13:24:52.629Z,25.75
2022-12-03T13:27:19.846Z,25.02
2022-12-03T13:29:59.177Z,24.77
2022-12-03T13:32:39.340Z,25.13
2022-12-03T13:35:36.220Z,23.83
2022-12-03T13:38:15.660Z,25.85
2022-12-03T13:40:43.191Z,24.52
2022-12-03T13:43:18.708Z,25.55
2022-12-03T13:48:39.780Z,25.50
2022-12-03T13:51:33.594Z,26.30
2022-12-03T13:54:00.882Z,26.58
2022-12-03T13:56:33.870Z,25.00
2022-12-03T13:59:05.309Z,27.63
2022-12-03T14:01:32.822Z,28.73
2022-12-03T14:04:00.250Z,28.20
2022-12-03T14:06:27.454Z,26.15
2022-12-03T14:08:55.505Z,24.38
2022-12-03T14:11:41.088Z,25.45
2022-12-03T14:14:10.353Z,26.20
2022-12-03T14:16:38.878Z,26.27
2022-12-03T14:19:09.794Z,27.00
2022-12-03T14:21:37.212Z,26.05
2022-12-03T14:24:05.306Z,28.40
2022-12-03T14:26:32.566Z,25.17
2022-12-03T14:29:48.824Z,23.88
2022-12-03T14:32:17.112Z,27.08
2022-12-03T14:34:44.659Z,22.95
2022-12-03T14:37:12.166Z,23.38
2022-12-03T14:39:41.281Z,23.63
2022-12-03T14:42:18.727Z,25.35
2022-12-03T14:44:52.765Z,28.00
2022-12-03T14:47:29.888Z,26.50
2022-12-03T14:49:58.033Z,26.15
2022-12-03T14:52:25.594Z,25.23
2022-12-03T14:54:53.372Z,24.10
2022-12-03T14:57:21.220Z,25.70
2022-12-03T14:59:48.977Z,26.15
2022-12-03T15:02:22.921Z,24.50
2022-12-03T15:04:52.773Z,24.52
2022-12-03T15:07:19.649Z,26.60
2022-12-03T15:09:47.048Z,26.08
2022-12-03T15:12:16.554Z,25.45
2022-12-03T15:14:44.146Z,26.33
2022-12-03T15:17:11.278Z,25.15
2022-12-03T15:19:38.544Z,25.52
2022-12-03T15:22:05.687Z,26.38
2022-12-03T15:24:33.156Z,25.65
2022-12-03T15:27:00.027Z,24.42
2022-12-03T15:29:27.354Z,23.42
2022-12-03T15:31:55.116Z,25.70
2022-12-03T15:34:23.249Z,24.48
2022-12-03T15:36:51.204Z,24.90
2022-12-03T15:39:18.653Z,23.95
2022-12-03T15:41:45.545Z,24.80
2022-12-03T15:44:12.598Z,24.00
2022-12-03T15:46:39.554Z,24.42
2022-12-03T15:49:07.307Z,23.50
2022-12-03T15:51:34.402Z,22.95
2022-12-03T15:54:01.947Z,23.20
2022-12-03T15:56:29.307Z,22.15
2022-12-03T15:58:56.844Z,23.45
2022-12-03T16:01:25.144Z,22.17
2022-12-03T16:04:14.871Z,23.67
2022-12-03T16:06:44.737Z,23.13
2022-12-03T16:09:11.922Z,23.83
2022-12-03T16:11:41.964Z,23.20
2022-12-03T16:14:09.052Z,22.23
2022-12-03T16:17:21.922Z,21.27
2022-12-03T16:19:50.231Z,23.05
2022-12-03T16:22:18.201Z,23.08
2022-12-03T16:24:45.873Z,23.40
2022-12-03T16:27:13.354Z,23.45
2022-12-03T16:29:40.932Z,23.55
2022-12-03T16:32:08.398Z,23.65
2022-12-03T16:34:35.927Z,23.52
2022-12-03T16:37:04.797Z,24.63
2022-12-03T16:39:32.305Z,25.50
2022-12-03T16:41:59.236Z,28.80
2022-12-03T16:44:50.511Z,24.95
2022-12-03T16:47:17.774Z,24.98
2022-12-03T16:49:45.542Z,23.40
2022-12-03T16:52:12.855Z,22.77
2022-12-03T16:54:40.331Z,22.88
2022-12-03T16:57:10.150Z,21.55
2022-12-03T16:59:37.452Z,22.50
2022-12-03T17:02:04.494Z,21.65
2022-12-03T17:04:31.835Z,22.55
2022-12-03T17:06:59.175Z,22.73
2022-12-03T17:09:26.519Z,21.65
2022-12-03T17:11:53.482Z,22.27
2022-12-03T17:14:21.476Z,21.35
2022-12-03T17:16:48.682Z,21.45
2022-12-03T17:19:16.472Z,21.58
2022-12-03T17:21:43.477Z,21.48
2022-12-03T17:24:10.612Z,22.13
2022-12-03T17:26:37.714Z,21.35
2022-12-03T17:29:05.500Z,22.25
2022-12-03T17:31:36.943Z,21.73
2022-12-03T17:34:10.234Z,20.65
2022-12-03T17:36:40.620Z,21.58
2022-12-03T17:39:07.723Z,19.60
2022-12-03T17:41:35.011Z,21.52
2022-12-03T17:44:09.731Z,21.13
2022-12-03T17:46:42.295Z,20.60
2022-12-03T17:49:10.074Z,22.73
2022-12-03T17:51:40.149Z,21.13
2022-12-03T17:54:07.524Z,21.05
2022-12-03T17:56:37.107Z,21.15
2022-12-03T17:59:06.412Z,22.98
2022-12-03T18:01:35.672Z,19.08
2022-12-03T18:04:07.127Z,21.30
2022-12-03T18:06:34.493Z,23.88
2022-12-03T18:09:02.672Z,20.90
2022-12-03T18:11:29.727Z,21.02
2022-12-03T18:13:57.461Z,22.25
2022-12-03T18:16:24.951Z,22.75
2022-12-03T18:18:56.526Z,20.88
2022-12-03T18:21:31.517Z,22.80
2022-12-03T18:24:00.246Z,20.80
2022-12-03T18:26:27.286Z,21.25
2022-12-03T18:28:54.876Z,21.88
2022-12-03T18:31:22.788Z,21.92
2022-12-03T18:33:50.150Z,22.35
2022-12-03T18:36:33.807Z,20.92
2022-12-03T18:39:09.374Z,16.33
2022-12-03T18:41:38.845Z,21.35
2022-12-03T18:44:12.141Z,21.35
2022-12-03T18:46:53.338Z,20.50
2022-12-03T18:49:25.190Z,20.70
2022-12-03T18:51:59.020Z,19.45
2022-12-03T18:54:28.979Z,22.27
2022-12-03T18:56:57.375Z,19.88
2022-12-03T18:59:26.161Z,20.45
2022-12-03T19:01:53.936Z,21.85
2022-12-03T19:04:21.296Z,18.98
2022-12-03T19:06:48.482Z,20.10
2022-12-03T19:09:51.566Z,21.80
2022-12-03T19:12:20.354Z,20.17
2022-12-03T19:15:03.356Z,19.38
2022-12-03T19:18:11.185Z,19.77
2022-12-03T19:20:58.092Z,20.48
2022-12-03T19:23:25.098Z,21.00
2022-12-03T19:26:07.335Z,20.95
2022-12-03T19:28:35.728Z,21.40
2022-12-03T19:31:23.183Z,21.88
2022-12-03T19:34:38.129Z,22.83
2022-12-03T19:37:07.308Z,20.60
2022-12-03T19:39:34.850Z,22.10
2022-12-03T19:42:45.332Z,21.58
2022-12-03T19:45:14.554Z,20.02
2022-12-03T19:47:46.322Z,21.33
2022-12-03T19:50:22.573Z,20.70
2022-12-03T19:52:54.502Z,22.85
2022-12-03T19:55:24.417Z,21.42
2022-12-03T19:57:51.591Z,20.60
2022-12-03T20:00:21.807Z,21.02
2022-12-03T20:03:48.424Z,22.20
2022-12-03T20:06:26.314Z,21.80
2022-12-03T20:12:09.715Z,22.48
2022-12-03T20:14:38.202Z,23.33
2022-12-03T20:17:05.732Z,23.13
2022-12-03T20:19:33.427Z,24.38
2022-12-03T20:22:05.184Z,21.65
2022-12-03T20:24:33.325Z,23.15
2022-12-03T20:27:03.725Z,23.55
2022-12-03T20:29:32.750Z,22.80
2022-12-03T20:32:04.402Z,22.98
2022-12-03T20:34:31.766Z,23.23
2022-12-03T20:36:58.594Z,22.15
2022-12-03T20:39:26.814Z,22.52
2022-12-03T20:41:54.026Z,25.80
2022-12-03T20:44:21.270Z,23.27
2022-12-03T20:46:48.784Z,23.15
2022-12-03T20:49:16.296Z,23.77
2022-12-03T20:51:43.632Z,25.42
2022-12-03T20:54:11.707Z,26.23
2022-12-03T20:56:42.194Z,22.98
2022-12-03T20:59:18.614Z,23.13
2022-12-03T21:01:46.192Z,23.75
2022-12-03T21:04:13.999Z,25.20
2022-12-03T21:06:42.446Z,26.48
2022-12-03T21:09:59.876Z,24.70
2022-12-03T21:12:27.604Z,24.40
2022-12-03T21:14:54.772Z,25.17
2022-12-03T21:17:21.758Z,27.00
2022-12-03T21:19:49.189Z,26.75
2022-12-03T21:22:16.103Z,29.67
2022-12-03T21:24:43.891Z,28.67
2022-12-03T21:27:14.513Z,27.80
2022-12-03T21:29:49.828Z,26.95
2022-12-03T21:32:17.949Z,27.05
2022-12-03T21:34:45.848Z,26.77
2022-12-03T21:37:12.989Z,27.95
2022-12-03T21:39:40.664Z,27.90
2022-12-03T21:42:33.968Z,26.85
2022-12-03T21:44:56.433Z,30.50
2022-12-03T21:47:24.022Z,27.77
2022-12-03T21:49:52.212Z,30.88
2022-12-03T21:52:19.890Z,30.80
2022-12-03T21:54:47.471Z,32.13
2022-12-03T21:57:14.821Z,29.42
2022-12-03T21:59:42.600Z,30.75
2022-12-03T22:02:11.558Z,31.83
2022-12-03T22:04:40.181Z,32.55
2022-12-03T22:07:07.623Z,30.63
2022-12-03T22:09:37.915Z,32.70
2022-12-03T22:12:05.348Z,30.55
2022-12-03T22:14:32.561Z,31.38
2022-12-03T22:16:59.454Z,29.98
2022-12-03T22:19:27.256Z,32.97
2022-12-03T22:21:54.150Z,30.23
2022-12-03T22:24:21.585Z,30.17
2022-12-03T22:26:48.404Z,29.88
2022-12-03T22:29:15.767Z,32.50
2022-12-03T22:31:42.918Z,31.30
2022-12-03T22:34:10.673Z,33.95
2022-12-03T22:36:38.018Z,30.75
2022-12-03T22:39:05.647Z,29.08
2022-12-03T22:41:32.896Z,32.67
2022-12-03T22:44:00.695Z,32.22
2022-12-03T22:46:28.148Z,32.92
2022-12-03T22:48:55.671Z,33.92
2022-12-03T22:51:25.950Z,31.92
2022-12-03T22:53:59.426Z,34.45
2022-12-03T22:56:29.830Z,32.78
2022-12-03T22:58:58.031Z,32.38
2022-12-03T23:01:33.621Z,32.30
2022-12-03T23:04:02.640Z,33.85
2022-12-03T23:06:31.907Z,31.90
2022-12-03T23:09:00.181Z,32.40
2022-12-03T23:11:28.592Z,34.03
2022-12-03T23:13:55.721Z,33.70
2022-12-03T23:16:28.138Z,36.35
2022-12-03T23:19:01.950Z,34.90
2022-12-03T23:21:34.263Z,36.05
2022-12-03T23:24:05.174Z,34.85
2022-12-03T23:26:37.816Z,35.42
2022-12-03T23:29:06.690Z,33.35
2022-12-03T23:31:34.594Z,34.70
2022-12-03T23:34:02.700Z,33.35
2022-12-03T23:36:32.940Z,32.53
2022-12-03T23:39:00.732Z,35.58
2022-12-03T23:41:28.714Z,33.13
2022-12-03T23:43:56.863Z,33.58
2022-12-03T23:46:27.956Z,34.40
2022-12-03T23:48:58.524Z,31.83
2022-12-03T23:51:25.949Z,32.22
2022-12-03T23:53:56.282Z,34.17
2022-12-03T23:56:29.626Z,34.35
2022-12-03T23:58:58.766Z,32.35
